createdAt,value
2018-05-25T03:01:04.395Z,990.97
2018-05-25T03:02:05.325Z,990.96
2018-05-25T03:03:05.496Z,990.95
2018-05-25T03:04:05.831Z,990.96
2018-05-25T03:05:09.306Z,990.93
2018-05-25T03:06:05.875Z,990.91
2018-05-25T03:07:05.797Z,990.92
2018-05-25T03:08:06.970Z,990.92
2018-05-25T03:09:06.606Z,990.93
2018-05-25T03:10:46.311Z,990.93
2018-05-25T03:13:09.782Z,990.97
2018-05-25T03:17:50.011Z,990.93
2018-05-25T03:18:50.870Z,990.93
2018-05-25T03:20:48.324Z,990.91
2018-05-25T03:21:48.376Z,990.93
2018-05-25T03:22:48.528Z,990.93
2018-05-25T03:23:48.778Z,990.96
2018-05-25T03:24:48.857Z,990.95
2018-05-25T03:25:49.009Z,990.95
2018-05-25T03:26:49.339Z,990.98
2018-05-25T03:27:49.414Z,990.98
2018-05-25T03:28:49.521Z,991.02
2018-05-25T03:29:49.747Z,991.00
2018-05-25T03:30:49.910Z,990.99
2018-05-25T03:31:50.153Z,990.96
2018-05-25T03:32:50.265Z,990.96
2018-05-25T03:33:50.570Z,991.00
2018-05-25T03:34:50.682Z,990.97
2018-05-25T03:35:50.795Z,991.00
2018-05-25T03:36:51.067Z,990.99
2018-05-25T03:37:51.227Z,990.99
2018-05-25T03:38:51.314Z,990.98
2018-05-25T03:39:51.566Z,991.00
2018-05-25T03:40:51.711Z,990.96
2018-05-25T03:41:51.868Z,991.01
2018-05-25T03:42:52.020Z,990.97
2018-05-25T03:43:52.207Z,990.98
2018-05-25T03:44:52.346Z,990.99
2018-05-25T03:45:52.529Z,990.95
2018-05-25T03:46:52.751Z,990.97
2018-05-25T03:47:52.843Z,991.00
2018-05-25T03:48:53.092Z,990.99
2018-05-25T03:49:53.219Z,991.05
2018-05-25T03:50:53.380Z,991.01
2018-05-25T03:51:53.623Z,991.06
2018-05-25T03:52:53.708Z,991.07
2018-05-25T03:53:54.738Z,991.07
2018-05-25T03:54:54.104Z,991.08
2018-05-25T03:55:54.468Z,991.08
2018-05-25T03:56:54.461Z,991.12
2018-05-25T03:57:54.662Z,991.12
2018-05-25T03:58:54.785Z,991.14
2018-05-25T03:59:54.960Z,991.13
2018-05-25T04:00:55.052Z,991.15
2018-05-25T04:01:55.348Z,991.18
2018-05-25T04:02:55.385Z,991.14
2018-05-25T04:03:55.687Z,991.11
2018-05-25T04:04:55.716Z,991.11
2018-05-25T04:05:55.933Z,991.12
2018-05-25T04:06:56.157Z,991.08
2018-05-25T04:07:56.255Z,991.09
2018-05-25T04:08:56.479Z,991.05
2018-05-25T04:09:56.613Z,991.11
2018-05-25T04:10:56.813Z,991.06
2018-05-25T04:11:56.923Z,991.12
2018-05-25T04:12:57.128Z,991.13
2018-05-25T04:13:57.228Z,991.11
2018-05-25T04:14:57.367Z,991.12
2018-05-25T04:15:57.558Z,991.11
2018-05-25T04:16:57.784Z,991.16
2018-05-25T04:17:57.996Z,991.16
2018-05-25T04:18:58.133Z,991.14
2018-05-25T04:19:58.268Z,991.14
2018-05-25T04:20:58.424Z,991.16
2018-05-25T04:21:58.633Z,991.17
2018-05-25T04:22:58.938Z,991.16
2018-05-25T04:23:58.971Z,991.11
2018-05-25T04:24:59.117Z,991.11
2018-05-25T04:25:59.326Z,991.13
2018-05-25T04:26:59.420Z,991.06
2018-05-25T04:27:59.636Z,991.06
2018-05-25T04:28:59.802Z,991.10
2018-05-25T04:29:59.920Z,991.09
2018-05-25T04:31:00.147Z,991.11
2018-05-25T04:32:00.336Z,991.12
2018-05-25T04:33:00.440Z,991.11
2018-05-25T04:34:00.583Z,991.13
2018-05-25T04:35:00.758Z,991.12
2018-05-25T04:36:00.937Z,991.16
2018-05-25T04:37:01.126Z,991.15
2018-05-25T04:38:01.300Z,991.16
2018-05-25T04:39:01.443Z,991.12
2018-05-25T04:40:01.686Z,991.13
2018-05-25T04:41:01.807Z,991.12
2018-05-25T04:42:02.044Z,991.14
2018-05-25T04:43:02.189Z,991.11
2018-05-25T04:44:02.307Z,991.14
2018-05-25T04:45:02.517Z,991.17
2018-05-25T04:46:02.743Z,991.15
2018-05-25T04:47:03.645Z,991.16
2018-05-25T04:48:02.969Z,991.17
2018-05-25T04:49:03.122Z,991.17
2018-05-25T04:50:03.272Z,991.16
2018-05-25T04:51:03.469Z,991.16
2018-05-25T04:52:03.620Z,991.18
2018-05-25T04:53:03.814Z,991.17
2018-05-25T04:54:04.003Z,991.21
2018-05-25T04:55:04.168Z,991.20
2018-05-25T04:56:04.350Z,991.24
2018-05-25T04:57:04.445Z,991.21
2018-05-25T04:58:04.575Z,991.21
2018-05-25T04:59:04.714Z,991.24
2018-05-25T05:00:04.933Z,991.25
2018-05-25T05:01:05.164Z,991.24
2018-05-25T05:02:05.241Z,991.25
2018-05-25T05:03:05.430Z,991.23
2018-05-25T05:04:05.616Z,991.23
2018-05-25T05:05:05.767Z,991.22
2018-05-25T05:06:05.985Z,991.21
2018-05-25T05:07:06.082Z,991.22
2018-05-25T05:08:06.222Z,991.24
2018-05-25T05:09:06.451Z,991.27
2018-05-25T05:10:06.562Z,991.26
2018-05-25T05:11:06.764Z,991.25
2018-05-25T05:12:06.949Z,991.26
2018-05-25T05:13:07.107Z,991.27
2018-05-25T05:14:07.190Z,991.27
2018-05-25T05:15:07.461Z,991.25
2018-05-25T05:16:07.674Z,991.25
2018-05-25T05:17:07.796Z,991.26
2018-05-25T05:18:07.957Z,991.26
2018-05-25T05:19:08.165Z,991.28
2018-05-25T05:20:08.218Z,991.27
2018-05-25T05:21:08.416Z,991.28
2018-05-25T05:22:08.539Z,991.29
2018-05-25T05:23:08.780Z,991.30
2018-05-25T05:24:08.974Z,991.28
2018-05-25T05:25:09.093Z,991.24
2018-05-25T05:26:09.268Z,991.26
2018-05-25T05:27:09.472Z,991.23
2018-05-25T05:28:09.631Z,991.26
2018-05-25T05:29:09.803Z,991.29
2018-05-25T05:30:10.013Z,991.30
2018-05-25T05:31:10.124Z,991.31
2018-05-25T05:32:10.367Z,991.34
2018-05-25T05:33:10.453Z,991.34
2018-05-25T05:34:10.653Z,991.37
2018-05-25T05:35:10.806Z,991.40
2018-05-25T05:36:11.002Z,991.41
2018-05-25T05:37:11.106Z,991.39
2018-05-25T05:38:11.248Z,991.44
2018-05-25T05:39:11.431Z,991.43
2018-05-25T05:40:11.645Z,991.41
2018-05-25T05:41:11.787Z,991.41
2018-05-25T05:42:11.989Z,991.42
2018-05-25T05:43:12.127Z,991.46
2018-05-25T05:44:12.341Z,991.50
2018-05-25T05:45:12.502Z,991.50
2018-05-25T05:46:12.597Z,991.51
2018-05-25T05:47:12.884Z,991.52
2018-05-25T05:48:12.982Z,991.56
2018-05-25T05:49:13.149Z,991.54
2018-05-25T05:50:13.261Z,991.56
2018-05-25T05:51:13.427Z,991.57
2018-05-25T05:52:13.656Z,991.55
2018-05-25T05:53:13.767Z,991.55
2018-05-25T05:54:14.034Z,991.56
2018-05-25T05:55:14.109Z,991.54
2018-05-25T05:56:14.353Z,991.55
2018-05-25T05:57:14.460Z,991.57
2018-05-25T05:58:14.685Z,991.57
2018-05-25T05:59:14.788Z,991.55
2018-05-25T06:00:14.920Z,991.55
2018-05-25T06:01:15.238Z,991.57
2018-05-25T06:02:15.356Z,991.57
2018-05-25T06:03:15.469Z,991.54
2018-05-25T06:04:15.668Z,991.56
2018-05-25T06:05:15.859Z,991.53
2018-05-25T06:06:16.014Z,991.55
2018-05-25T06:07:16.146Z,991.55
2018-05-25T06:08:16.335Z,991.58
2018-05-25T06:09:16.450Z,991.58
2018-05-25T06:10:16.633Z,991.58
2018-05-25T06:11:16.857Z,991.55
2018-05-25T06:12:17.007Z,991.50
2018-05-25T06:13:17.087Z,991.56
2018-05-25T06:14:17.325Z,991.54
2018-05-25T06:15:17.473Z,991.61
2018-05-25T06:16:17.625Z,991.60
2018-05-25T06:17:17.801Z,991.58
2018-05-25T06:18:17.943Z,991.59
2018-05-25T06:19:18.156Z,991.61
2018-05-25T06:20:18.262Z,991.60
2018-05-25T06:21:18.396Z,991.67
2018-05-25T06:22:18.617Z,991.63
2018-05-25T06:23:18.815Z,991.65
2018-05-25T06:24:18.960Z,991.62
2018-05-25T06:25:19.155Z,991.61
2018-05-25T06:26:19.274Z,991.64
2018-05-25T06:27:19.405Z,991.61
2018-05-25T06:28:19.663Z,991.64
2018-05-25T06:29:19.853Z,991.62
2018-05-25T06:30:19.948Z,991.60
2018-05-25T06:31:20.103Z,991.61
2018-05-25T06:32:20.243Z,991.61
2018-05-25T06:33:20.403Z,991.61
2018-05-25T06:34:20.642Z,991.61
2018-05-25T06:35:20.767Z,991.63
2018-05-25T06:36:20.927Z,991.62
2018-05-25T06:37:21.169Z,991.57
2018-05-25T06:38:21.223Z,991.62
2018-05-25T06:39:21.460Z,991.63
2018-05-25T06:40:21.622Z,991.66
2018-05-25T06:41:21.740Z,991.66
2018-05-25T06:42:21.854Z,991.69
2018-05-25T06:43:22.065Z,991.74
2018-05-25T06:44:22.248Z,991.74
2018-05-25T06:45:22.357Z,991.75
2018-05-25T06:46:22.578Z,991.75
2018-05-25T06:47:22.798Z,991.78
2018-05-25T06:48:22.894Z,991.80
2018-05-25T06:49:23.146Z,991.77
2018-05-25T06:50:23.275Z,991.78
2018-05-25T06:51:23.422Z,991.79
2018-05-25T06:52:23.601Z,991.79
2018-05-25T06:53:23.810Z,991.78
2018-05-25T06:54:24.014Z,991.77
2018-05-25T06:55:24.153Z,991.81
2018-05-25T06:56:24.261Z,991.86
2018-05-25T06:57:24.380Z,991.84
2018-05-25T06:58:24.640Z,991.87
2018-05-25T06:59:24.833Z,991.83
2018-05-25T07:00:24.988Z,991.82
2018-05-25T07:01:25.143Z,991.83
2018-05-25T07:02:25.284Z,991.82
2018-05-25T07:03:25.497Z,991.83
2018-05-25T07:04:25.651Z,991.82
2018-05-25T07:05:25.732Z,991.81
2018-05-25T07:06:26.002Z,991.82
2018-05-25T07:07:26.148Z,991.84
2018-05-25T07:08:26.295Z,991.87
2018-05-25T07:09:26.477Z,991.87
2018-05-25T07:10:26.630Z,991.91
2018-05-25T07:11:26.863Z,991.91
2018-05-25T07:12:27.029Z,991.89
2018-05-25T07:13:27.146Z,991.92
2018-05-25T07:14:27.331Z,991.89
2018-05-25T07:15:27.467Z,991.92
2018-05-25T07:16:27.706Z,991.89
2018-05-25T07:17:27.863Z,991.91
2018-05-25T07:18:27.910Z,991.97
2018-05-25T07:19:28.144Z,991.92
2018-05-25T07:20:28.262Z,991.93
2018-05-25T07:21:28.421Z,991.90
2018-05-25T07:22:28.595Z,991.94
2018-05-25T07:23:28.793Z,991.91
2018-05-25T07:24:28.909Z,991.94
2018-05-25T07:25:29.202Z,991.95
2018-05-25T07:26:29.238Z,991.96
2018-05-25T07:27:29.466Z,991.95
2018-05-25T07:28:29.671Z,991.96
2018-05-25T07:29:29.895Z,991.98
2018-05-25T07:30:30.038Z,991.98
2018-05-25T07:31:30.172Z,991.96
2018-05-25T07:32:30.277Z,991.95
2018-05-25T07:33:30.501Z,991.94
2018-05-25T07:34:30.683Z,991.96
2018-05-25T07:35:30.787Z,991.90
2018-05-25T07:36:31.044Z,991.92
2018-05-25T07:37:31.135Z,991.93
2018-05-25T07:38:31.382Z,991.88
2018-05-25T07:39:31.474Z,991.86
2018-05-25T07:40:31.735Z,991.85
2018-05-25T07:41:31.874Z,991.86
2018-05-25T07:42:32.001Z,991.85
2018-05-25T07:43:32.137Z,991.86
2018-05-25T07:44:32.380Z,991.85
2018-05-25T07:45:32.442Z,991.91
2018-05-25T07:46:32.704Z,991.91
2018-05-25T07:47:32.876Z,991.91
2018-05-25T07:48:32.956Z,991.90
2018-05-25T07:49:33.166Z,991.92
2018-05-25T07:50:33.346Z,991.91
2018-05-25T07:51:33.560Z,991.90
2018-05-25T07:52:33.639Z,991.87
2018-05-25T07:53:33.818Z,991.93
2018-05-25T07:54:34.026Z,991.92
2018-05-25T07:55:34.211Z,991.91
2018-05-25T07:56:34.344Z,991.95
2018-05-25T07:57:34.564Z,991.96
2018-05-25T07:58:34.667Z,991.98
2018-05-25T07:59:34.905Z,991.94
2018-05-25T08:00:35.013Z,991.97
2018-05-25T08:01:35.242Z,991.99
2018-05-25T08:02:35.379Z,991.98
2018-05-25T08:03:35.573Z,991.97
2018-05-25T08:04:35.796Z,992.01
2018-05-25T08:05:35.904Z,992.00
2018-05-25T08:06:36.089Z,991.98
2018-05-25T08:07:36.234Z,991.95
2018-05-25T08:08:36.422Z,992.01
2018-05-25T08:09:36.553Z,992.05
2018-05-25T08:10:36.698Z,992.01
2018-05-25T08:11:36.885Z,991.99
2018-05-25T08:12:37.042Z,992.03
2018-05-25T08:13:37.243Z,992.05
2018-05-25T08:14:37.434Z,992.08
2018-05-25T08:15:37.619Z,992.02
2018-05-25T08:16:37.782Z,992.02
2018-05-25T08:17:37.895Z,992.02
2018-05-25T08:18:38.124Z,992.00
2018-05-25T08:19:38.251Z,992.03
2018-05-25T08:20:38.470Z,992.03
2018-05-25T08:21:38.607Z,992.03
2018-05-25T08:22:38.813Z,992.04
2018-05-25T08:23:38.981Z,992.07
2018-05-25T08:24:39.102Z,992.07
2018-05-25T08:25:39.319Z,992.08
2018-05-25T08:26:39.452Z,992.07
2018-05-25T08:27:39.738Z,992.12
2018-05-25T08:28:39.854Z,992.19
2018-05-25T08:29:39.974Z,992.13
2018-05-25T08:30:40.255Z,992.11
2018-05-25T08:31:40.375Z,992.13
2018-05-25T08:32:40.530Z,992.12
2018-05-25T08:33:40.662Z,992.14
2018-05-25T08:34:40.910Z,992.14
2018-05-25T08:35:41.077Z,992.13
2018-05-25T08:36:41.268Z,992.15
2018-05-25T08:37:41.436Z,992.15
2018-05-25T08:38:41.677Z,992.16
2018-05-25T08:39:41.751Z,992.15
2018-05-25T08:40:41.955Z,992.13
2018-05-25T08:41:42.083Z,992.12
2018-05-25T08:42:42.284Z,992.15
2018-05-25T08:43:42.411Z,992.14
2018-05-25T08:44:42.630Z,992.16
2018-05-25T08:45:42.721Z,992.19
2018-05-25T08:46:42.940Z,992.17
2018-05-25T08:47:43.136Z,992.19
2018-05-25T08:48:43.215Z,992.23
2018-05-25T08:49:43.419Z,992.23
2018-05-25T08:50:43.618Z,992.21
2018-05-25T08:51:43.780Z,992.19
2018-05-25T08:52:43.991Z,992.15
2018-05-25T08:53:44.148Z,992.18
2018-05-25T08:54:44.259Z,992.17
2018-05-25T08:55:44.456Z,992.21
2018-05-25T08:56:44.593Z,992.21
2018-05-25T08:57:44.812Z,992.27
2018-05-25T08:58:44.905Z,992.25
2018-05-25T08:59:45.147Z,992.29
2018-05-25T09:00:45.267Z,992.31
2018-05-25T09:01:45.416Z,992.31
2018-05-25T09:02:45.679Z,992.36
2018-05-25T09:03:45.800Z,992.34
2018-05-25T09:04:45.979Z,992.35
2018-05-25T09:05:46.146Z,992.36
2018-05-25T09:06:46.283Z,992.40
2018-05-25T09:07:46.489Z,992.38
2018-05-25T09:08:46.571Z,992.45
2018-05-25T09:09:46.811Z,992.42
2018-05-25T09:10:46.951Z,992.37
2018-05-25T09:11:47.096Z,992.39
2018-05-25T09:12:47.278Z,992.38
2018-05-25T09:13:47.472Z,992.35
2018-05-25T09:14:47.663Z,992.32
2018-05-25T09:15:47.769Z,992.30
2018-05-25T09:16:48.027Z,992.31
2018-05-25T09:17:48.095Z,992.37
2018-05-25T09:18:48.304Z,992.34
2018-05-25T09:19:48.501Z,992.30
2018-05-25T09:20:48.718Z,992.26
2018-05-25T09:21:48.884Z,992.29
2018-05-25T09:22:49.070Z,992.23
2018-05-25T09:23:49.205Z,992.19
2018-05-25T09:24:49.284Z,992.27
2018-05-25T09:25:49.468Z,992.23
2018-05-25T09:26:49.681Z,992.23
2018-05-25T09:27:49.869Z,992.23
2018-05-25T09:28:50.102Z,992.20
2018-05-25T09:29:50.209Z,992.23
2018-05-25T09:30:50.436Z,992.26
2018-05-25T09:31:50.565Z,992.23
2018-05-25T09:32:50.728Z,992.27
2018-05-25T09:33:50.853Z,992.29
2018-05-25T09:34:51.070Z,992.26
2018-05-25T09:35:51.188Z,992.25
2018-05-25T09:36:51.332Z,992.30
2018-05-25T09:37:51.591Z,992.31
2018-05-25T09:38:51.771Z,992.28
2018-05-25T09:39:51.936Z,992.31
2018-05-25T09:40:52.093Z,992.27
2018-05-25T09:41:52.240Z,992.30
2018-05-25T09:42:52.377Z,992.31
2018-05-25T09:43:52.643Z,992.30
2018-05-25T09:44:52.742Z,992.30
2018-05-25T09:45:53.081Z,992.28
2018-05-25T09:46:53.115Z,992.30
2018-05-25T09:47:53.269Z,992.33
2018-05-25T09:48:53.546Z,992.32
2018-05-25T09:49:53.711Z,992.34
2018-05-25T09:50:53.815Z,992.33
2018-05-25T09:51:53.961Z,992.32
2018-05-25T09:52:54.215Z,992.31
2018-05-25T09:53:54.299Z,992.32
2018-05-25T09:54:54.468Z,992.36
2018-05-25T09:55:54.660Z,992.34
2018-05-25T09:56:54.807Z,992.35
2018-05-25T09:57:55.043Z,992.43
2018-05-25T09:58:55.139Z,992.49
2018-05-25T09:59:55.299Z,992.53
2018-05-25T10:00:55.513Z,992.60
2018-05-25T10:01:55.667Z,992.54
2018-05-25T10:02:55.882Z,992.34
2018-05-25T10:03:55.998Z,992.35
2018-05-25T10:04:56.193Z,992.56
2018-05-25T10:05:56.298Z,992.63
2018-05-25T10:06:56.519Z,992.68
2018-05-25T10:07:56.728Z,992.72
2018-05-25T10:08:56.859Z,992.68
2018-05-25T10:09:56.954Z,992.66
2018-05-25T10:10:57.141Z,992.73
2018-05-25T10:11:57.378Z,992.72
2018-05-25T10:12:57.540Z,992.70
2018-05-25T10:13:57.677Z,992.68
2018-05-25T10:14:57.851Z,992.53
2018-05-25T10:15:58.043Z,992.73
2018-05-25T10:16:58.155Z,992.40
2018-05-25T10:17:58.406Z,992.70
2018-05-25T10:18:58.491Z,992.35
2018-05-25T10:19:58.732Z,992.35
2018-05-25T10:20:58.931Z,992.72
2018-05-25T10:21:59.037Z,992.74
2018-05-25T10:22:59.291Z,992.72
2018-05-25T10:23:59.361Z,992.49
2018-05-25T10:24:59.567Z,992.66
2018-05-25T10:25:59.747Z,992.44
2018-05-25T10:26:59.975Z,992.48
2018-05-25T10:28:00.142Z,992.55
2018-05-25T10:29:00.316Z,992.48
2018-05-25T10:30:00.445Z,992.58
2018-05-25T10:31:00.631Z,992.75
2018-05-25T10:32:00.839Z,992.55
2018-05-25T10:33:01.037Z,992.57
2018-05-25T10:34:01.097Z,992.69
2018-05-25T10:35:01.339Z,992.62
2018-05-25T10:36:01.516Z,992.49
2018-05-25T10:37:01.625Z,992.62
2018-05-25T10:38:01.890Z,992.62
2018-05-25T10:39:02.007Z,992.64
2018-05-25T10:40:02.141Z,992.41
2018-05-25T10:41:02.329Z,992.63
2018-05-25T10:42:02.538Z,992.68
2018-05-25T10:43:02.648Z,992.74
2018-05-25T10:44:02.827Z,992.87
2018-05-25T10:45:02.952Z,992.95
2018-05-25T10:46:03.128Z,992.95
2018-05-25T10:47:03.376Z,993.07
2018-05-25T10:48:03.516Z,993.24
2018-05-25T10:49:03.695Z,993.39
2018-05-25T10:50:03.856Z,993.51
2018-05-25T10:51:04.031Z,993.67
2018-05-25T10:52:04.207Z,993.92
2018-05-25T10:53:04.439Z,994.00
2018-05-25T10:54:04.583Z,994.05
2018-05-25T10:55:04.780Z,994.15
2018-05-25T10:56:04.946Z,994.28
2018-05-25T10:57:05.181Z,994.31
2018-05-25T10:58:05.282Z,994.24
2018-05-25T10:59:05.465Z,994.32
2018-05-25T11:00:05.650Z,994.24
2018-05-25T11:01:05.801Z,994.23
2018-05-25T11:02:05.941Z,994.12
2018-05-25T11:03:06.081Z,994.00
2018-05-25T11:04:06.289Z,993.96
2018-05-25T11:05:06.494Z,993.96
2018-05-25T11:06:06.630Z,993.91
2018-05-25T11:07:06.836Z,993.90
2018-05-25T11:08:07.000Z,993.83
2018-05-25T11:09:07.141Z,993.77
2018-05-25T11:10:07.278Z,993.84
2018-05-25T11:11:07.482Z,993.77
2018-05-25T11:12:07.667Z,993.78
2018-05-25T11:13:07.826Z,993.68
2018-05-25T11:14:08.044Z,993.53
2018-05-25T11:15:08.174Z,993.15
2018-05-25T11:16:08.300Z,992.71
2018-05-25T11:17:08.504Z,992.50
2018-05-25T11:18:08.677Z,992.53
2018-05-25T11:19:08.856Z,992.46
2018-05-25T11:20:09.005Z,992.34
2018-05-25T11:21:09.176Z,992.39
2018-05-25T11:22:09.399Z,992.48
2018-05-25T11:23:09.544Z,992.61
2018-05-25T11:24:09.704Z,992.82
2018-05-25T11:25:09.893Z,993.03
2018-05-25T11:26:10.104Z,992.82
2018-05-25T11:27:10.334Z,992.57
2018-05-25T11:28:10.460Z,992.43
2018-05-25T11:29:10.583Z,992.35
2018-05-25T11:30:10.768Z,992.39
2018-05-25T11:31:11.005Z,992.26
2018-05-25T11:32:11.205Z,992.30
2018-05-25T11:33:11.295Z,992.24
2018-05-25T11:34:11.498Z,992.59
2018-05-25T11:35:11.646Z,992.47
2018-05-25T11:36:11.871Z,992.25
2018-05-25T11:37:11.970Z,992.31
2018-05-25T11:38:12.166Z,992.24
2018-05-25T11:39:12.393Z,992.16
2018-05-25T11:40:12.579Z,992.36
2018-05-25T11:41:12.679Z,992.43
2018-05-25T11:42:12.936Z,992.94
2018-05-25T11:43:13.037Z,993.04
2018-05-25T11:44:13.249Z,992.99
2018-05-25T11:45:13.441Z,992.88
2018-05-25T11:46:13.655Z,992.92
2018-05-25T11:47:13.785Z,992.79
2018-05-25T11:48:13.958Z,992.06
2018-05-25T11:49:14.167Z,992.91
2018-05-25T11:50:14.324Z,992.83
2018-05-25T11:51:14.534Z,992.89
2018-05-25T11:52:14.637Z,992.89
2018-05-25T11:53:14.829Z,992.63
2018-05-25T11:54:15.015Z,992.39
2018-05-25T11:55:15.126Z,992.87
2018-05-25T11:56:15.325Z,992.91
2018-05-25T11:57:15.506Z,992.85
2018-05-25T11:58:15.707Z,992.86
2018-05-25T11:59:15.847Z,992.85
2018-05-25T12:00:16.006Z,992.03
2018-05-25T12:01:16.173Z,992.20
2018-05-25T12:02:16.378Z,992.79
2018-05-25T12:03:16.633Z,991.91
2018-05-25T12:04:16.774Z,992.75
2018-05-25T12:05:16.965Z,992.85
2018-05-25T12:06:17.117Z,992.91
2018-05-25T12:07:17.294Z,992.84
2018-05-25T12:08:17.508Z,992.56
2018-05-25T12:09:17.687Z,992.42
2018-05-25T12:10:17.802Z,992.75
2018-05-25T12:11:18.031Z,992.70
2018-05-25T12:12:18.180Z,992.83
2018-05-25T12:13:18.348Z,992.85
2018-05-25T12:14:18.506Z,992.59
2018-05-25T12:15:18.681Z,992.39
2018-05-25T12:16:18.889Z,992.27
2018-05-25T12:17:19.032Z,992.13
2018-05-25T12:18:19.236Z,992.11
2018-05-25T12:19:19.384Z,992.05
2018-05-25T12:20:19.589Z,992.04
2018-05-25T12:21:19.745Z,992.04
2018-05-25T12:22:19.890Z,992.02
2018-05-25T12:23:20.051Z,992.03
2018-05-25T12:24:20.316Z,992.03
2018-05-25T12:25:20.430Z,992.02
2018-05-25T12:26:20.691Z,992.03
2018-05-25T12:27:20.787Z,992.02
2018-05-25T12:28:20.999Z,991.97
2018-05-25T12:29:21.105Z,991.96
2018-05-25T12:30:21.407Z,991.93
2018-05-25T12:31:21.527Z,991.94
2018-05-25T12:32:21.654Z,991.93
2018-05-25T12:33:21.861Z,991.90
2018-05-25T12:34:21.999Z,991.87
2018-05-25T12:35:22.244Z,991.89
2018-05-25T12:36:22.383Z,991.84
2018-05-25T12:37:22.583Z,991.85
2018-05-25T12:38:22.744Z,991.81
2018-05-25T12:39:22.964Z,991.90
2018-05-25T12:40:23.121Z,991.85
2018-05-25T12:41:23.336Z,991.81
2018-05-25T12:42:23.474Z,991.78
2018-05-25T12:43:23.694Z,991.88
2018-05-25T12:44:23.869Z,992.00
2018-05-25T12:45:24.080Z,992.08
2018-05-25T12:46:24.308Z,992.07
2018-05-25T12:47:24.453Z,991.80
2018-05-25T12:48:24.674Z,991.80
2018-05-25T12:49:24.788Z,991.76
2018-05-25T12:50:25.007Z,991.84
2018-05-25T12:51:25.205Z,991.80
2018-05-25T12:52:25.333Z,991.88
2018-05-25T12:53:25.552Z,991.99
2018-05-25T12:54:25.720Z,991.86
2018-05-25T12:55:25.892Z,991.96
2018-05-25T12:56:26.100Z,992.13
2018-05-25T12:57:26.267Z,992.08
2018-05-25T12:58:26.466Z,992.14
2018-05-25T12:59:26.634Z,992.08
2018-05-25T13:00:26.893Z,991.76
2018-05-25T13:01:27.016Z,991.86
2018-05-25T13:02:27.179Z,992.00
2018-05-25T13:03:27.378Z,992.08
2018-05-25T13:04:27.520Z,992.05
2018-05-25T13:05:27.792Z,992.06
2018-05-25T13:06:27.916Z,992.01
2018-05-25T13:07:28.089Z,991.99
2018-05-25T13:08:28.297Z,991.96
2018-05-25T13:09:28.512Z,991.97
2018-05-25T13:10:28.652Z,992.01
2018-05-25T13:11:28.823Z,992.03
2018-05-25T13:12:29.071Z,992.05
2018-05-25T13:13:29.303Z,992.04
2018-05-25T13:14:29.472Z,991.97
2018-05-25T13:15:29.733Z,992.02
2018-05-25T13:16:29.825Z,991.98
2018-05-25T13:17:30.080Z,991.96
2018-05-25T13:18:30.161Z,991.95
2018-05-25T13:19:30.302Z,991.97
2018-05-25T13:20:30.483Z,992.00
2018-05-25T13:21:30.690Z,991.99
2018-05-25T13:22:30.827Z,991.97
2018-05-25T13:23:31.013Z,991.96
2018-05-25T13:24:31.240Z,991.95
2018-05-25T13:25:31.424Z,991.88
2018-05-25T13:26:31.621Z,991.93
2018-05-25T13:27:31.804Z,991.92
2018-05-25T13:28:32.009Z,991.85
2018-05-25T13:29:32.157Z,991.87
2018-05-25T13:30:32.292Z,991.87
2018-05-25T13:31:32.521Z,991.86
2018-05-25T13:32:32.735Z,991.85
2018-05-25T13:33:32.886Z,991.80
2018-05-25T13:34:33.013Z,991.83
2018-05-25T13:35:33.244Z,991.81
2018-05-25T13:36:33.333Z,991.81
2018-05-25T13:37:33.521Z,991.77
2018-05-25T13:38:33.718Z,991.80
2018-05-25T13:39:33.932Z,991.79
2018-05-25T13:40:34.072Z,991.81
2018-05-25T13:41:34.268Z,991.82
2018-05-25T13:42:34.466Z,991.89
2018-05-25T13:43:34.641Z,991.86
2018-05-25T13:44:34.785Z,991.86
2018-05-25T13:45:35.014Z,991.85
2018-05-25T13:46:35.203Z,991.82
2018-05-25T13:47:35.328Z,991.82
2018-05-25T13:48:35.519Z,991.79
2018-05-25T13:49:35.709Z,991.80
2018-05-25T13:50:35.885Z,991.84
2018-05-25T13:51:36.075Z,991.86
2018-05-25T13:52:36.299Z,991.91
2018-05-25T13:53:36.429Z,991.84
2018-05-25T13:54:36.609Z,991.94
2018-05-25T13:55:36.806Z,991.65
2018-05-25T13:56:37.000Z,991.86
2018-05-25T13:57:37.167Z,991.86
2018-05-25T13:58:37.381Z,991.62
2018-05-25T13:59:37.552Z,991.63
2018-05-25T14:00:37.703Z,991.85
2018-05-25T14:01:37.849Z,991.85
2018-05-25T14:02:38.041Z,991.81
2018-05-25T14:03:38.316Z,991.88
2018-05-25T14:04:38.468Z,991.84
2018-05-25T14:05:38.698Z,991.83
2018-05-25T14:06:38.831Z,991.89
2018-05-25T14:07:38.940Z,991.76
2018-05-25T14:08:39.208Z,991.80
2018-05-25T14:09:39.361Z,991.81
2018-05-25T14:10:39.552Z,991.80
2018-05-25T14:11:39.696Z,991.81
2018-05-25T14:12:39.882Z,991.77
2018-05-25T14:13:39.995Z,991.74
2018-05-25T14:14:40.229Z,991.74
2018-05-25T14:15:40.446Z,991.76
2018-05-25T14:16:40.572Z,991.72
2018-05-25T14:17:40.702Z,991.74
2018-05-25T14:18:40.947Z,991.76
2018-05-25T14:19:41.059Z,991.75
2018-05-25T14:20:41.221Z,991.80
2018-05-25T14:21:41.464Z,991.80
2018-05-25T14:22:41.595Z,991.76
2018-05-25T14:23:41.743Z,991.82
2018-05-25T14:24:41.915Z,991.75
2018-05-25T14:25:42.176Z,991.79
2018-05-25T14:26:42.336Z,991.51
2018-05-25T14:27:42.469Z,991.58
2018-05-25T14:28:42.654Z,991.56
2018-05-25T14:29:42.791Z,991.55
2018-05-25T14:30:43.085Z,991.58
2018-05-25T14:31:43.173Z,991.54
2018-05-25T14:32:43.351Z,991.57
2018-05-25T14:33:43.510Z,991.61
2018-05-25T14:34:43.746Z,991.79
2018-05-25T14:35:43.904Z,991.72
2018-05-25T14:36:44.081Z,991.62
2018-05-25T14:37:44.208Z,991.77
2018-05-25T14:38:44.448Z,991.79
2018-05-25T14:39:44.608Z,991.74
2018-05-25T14:40:44.818Z,991.70
2018-05-25T14:41:44.908Z,991.65
2018-05-25T14:42:45.131Z,991.69
2018-05-25T14:43:45.302Z,991.70
2018-05-25T14:44:45.451Z,991.69
2018-05-25T14:45:45.659Z,991.61
2018-05-25T14:46:45.778Z,991.61
2018-05-25T14:47:45.995Z,991.50
2018-05-25T14:48:46.169Z,991.53
2018-05-25T14:49:46.342Z,991.59
2018-05-25T14:50:46.562Z,991.57
2018-05-25T14:51:46.795Z,991.54
2018-05-25T14:52:46.897Z,991.53
2018-05-25T14:53:47.001Z,991.56
2018-05-25T14:54:47.178Z,991.59
2018-05-25T14:55:47.432Z,991.65
2018-05-25T14:56:47.565Z,991.65
2018-05-25T14:57:47.809Z,991.61
2018-05-25T14:58:47.955Z,991.59
2018-05-25T14:59:48.171Z,991.57
2018-05-25T15:00:48.283Z,991.57
2018-05-25T15:01:48.497Z,991.55
2018-05-25T15:02:48.685Z,991.57
2018-05-25T15:03:48.864Z,991.59
2018-05-25T15:04:48.968Z,991.60
2018-05-25T15:05:49.211Z,991.60
2018-05-25T15:06:49.349Z,991.62
2018-05-25T15:07:49.508Z,991.61
2018-05-25T15:08:49.705Z,991.64
2018-05-25T15:09:49.899Z,991.65
2018-05-25T15:10:50.059Z,991.64
2018-05-25T15:11:50.234Z,991.66
2018-05-25T15:12:50.354Z,991.64
2018-05-25T15:13:50.557Z,991.67
2018-05-25T15:14:50.728Z,991.64
2018-05-25T15:15:50.974Z,991.68
2018-05-25T15:16:51.064Z,991.67
2018-05-25T15:17:51.222Z,991.67
2018-05-25T15:18:51.427Z,991.70
2018-05-25T15:19:51.557Z,991.71
2018-05-25T15:20:51.717Z,991.66
2018-05-25T15:21:51.956Z,991.66
2018-05-25T15:22:52.079Z,991.64
2018-05-25T15:23:52.288Z,991.63
2018-05-25T15:24:52.484Z,991.60
2018-05-25T15:25:52.636Z,991.62
2018-05-25T15:26:52.768Z,991.59
2018-05-25T15:27:52.923Z,991.61
2018-05-25T15:28:53.141Z,991.62
2018-05-25T15:29:53.276Z,991.63
2018-05-25T15:30:53.678Z,991.62
2018-05-25T15:31:53.661Z,991.64
2018-05-25T15:32:53.886Z,991.64
2018-05-25T15:33:53.981Z,991.60
2018-05-25T15:34:54.231Z,991.62
2018-05-25T15:35:54.362Z,991.60
2018-05-25T15:36:54.492Z,991.57
2018-05-25T15:37:54.689Z,991.57